Sheridan, WY (82801)

10:09 PM MST on February 25, 2017 (GMT -0700)
South Sheridan | | Change Station

Elev 3770 ft 44.79 °N, 106.95 °W | Updated 55 seconds ago

Clear
Clear
20.5 °F
Feels Like 20 °F
N
0.4
Wind Variable Wind from SSW
Gusts 2.5 mph

Today
High -- | Low -- °F
--% Chance of Precip.
Yesterday
High -- | Low -- °F
Precip. -- in
Pressure 29.84 in
Visibility 10.0 miles
Clouds Clear
Windchill 20 °F
Dew Point 11 °F
Humidity 66%
Rainfall 0.00 in
Snow Depth Not available.
6:51 AM 5:50 PM
Waning Crescent, 0% visible
METAR KSHR 260453Z AUTO 14009KT 10SM CLR M08/M12 A2970 RMK AO2 SLP105 T10831117
Pressure 29.84 in
Visibility 10.0 miles
Clouds Clear
Windchill 20 °F
Dew Point 11 °F
Humidity 66%
Rainfall 0.00 in
Snow Depth Not available.
6:51 AM 5:50 PM
Waning Crescent, 0% visible
METAR KSHR 260453Z AUTO 14009KT 10SM CLR M08/M12 A2970 RMK AO2 SLP105 T10831117

Get Your Daily Forecast Email!

Thanks for signing up!

Be on the lookout for a verification email in your inbox.

You'll start receiving the daily forecast at 8 AM.

×

10-Day Weather Forecast

Almanac

Astronomy

Feb. 25, 2017 Rise Set
Actual Time
Civil Twilight
Nautical Twilight
Astronomical Twilight
Moon
Length of Visible Light
Length of Day
Tomorrow will be .
, % of the Moon is Illuminated

Today's Extremes

State Highs State Lows

Community

WunderPhotos

Upload Photos

1,962,540 photos uploaded!

WunderBlog® & News

Nearby

Air Quality

  Air Quality AQ Index Pollutant
Not available.

Snow Depth

Station Depth Elevation

Earthquake Activity

City Distance Mag. Time & Date
Minimum magnitude displayed is 2.5.

Coastal Water Temperatures

Place Temperature

Stations

Nearby Weather Stations

Station Location Temp. Windchill Dew Point Humidity Wind Precip. Elev Updated Type
                   

Watches & Warnings

There are currently no watches in effect.